LSN weather

Los Banos Municipal Airport
Los Banos, California, United States

Public forecast

Using degrees Fahrenheit for public forecast. Weather courtesy of forecast.io.

METAR (pilot weather report)

Closest report is Merced Regional Macready Field, 21.6 nm (40.0 km) NE. Retrieved 2019/08/19 20:53 UTC (1 hour ago):

KMCE 192053Z AUTO VRB03KT 10SM CLR 29/13 A2991 RMK AO2 SLP126 T02940128 58011

TAF (pilot weather forecast)

Closest forecast is Merced Regional Macready Field, 21.6 nm (40.0 km) NE. Retrieved 2019/08/19 18:22 UTC (4 hours ago):

TAF KMCE 191720Z 1918/2018 30006KT P6SM SKC